createdAt,value
2018-06-11T00:03:28.764Z,62.10
2018-06-11T00:07:32.470Z,63.00
2018-06-11T00:11:36.761Z,62.80
2018-06-11T00:15:40.466Z,62.10
2018-06-11T00:19:44.136Z,62.90
2018-06-11T00:23:47.815Z,62.70
2018-06-11T00:27:51.493Z,62.50
2018-06-11T00:31:55.188Z,62.90
2018-06-11T00:35:58.832Z,63.00
2018-06-11T00:40:02.597Z,63.70
2018-06-11T00:44:06.261Z,63.10
2018-06-11T00:48:09.919Z,63.70
2018-06-11T00:52:13.565Z,64.20
2018-06-11T00:56:23.916Z,63.50
2018-06-11T01:00:27.632Z,63.90
2018-06-11T01:04:31.303Z,63.30
2018-06-11T01:08:35.028Z,63.50
2018-06-11T01:12:38.681Z,63.80
2018-06-11T01:16:42.307Z,63.30
2018-06-11T01:20:45.973Z,63.50
2018-06-11T01:24:49.644Z,63.80
2018-06-11T01:28:53.395Z,64.10
2018-06-11T01:32:57.087Z,64.50
2018-06-11T01:37:00.763Z,64.20
2018-06-11T01:41:04.450Z,63.40
2018-06-11T01:45:08.208Z,63.70
2018-06-11T01:49:11.867Z,63.40
2018-06-11T01:53:15.535Z,63.50
2018-06-11T01:57:19.199Z,64.30
2018-06-11T02:01:22.819Z,64.40
2018-06-11T02:05:26.488Z,63.20
2018-06-11T02:09:30.219Z,63.50
2018-06-11T02:13:34.007Z,63.20
2018-06-11T02:17:37.679Z,63.10
2018-06-11T02:21:41.312Z,64.00
2018-06-11T02:25:44.986Z,63.00
2018-06-11T02:29:48.656Z,62.90
2018-06-11T02:33:52.369Z,62.90
2018-06-11T02:37:56.028Z,63.00
2018-06-11T02:41:59.672Z,62.80
2018-06-11T02:46:03.391Z,62.70
2018-06-11T02:50:07.229Z,62.70
2018-06-11T02:54:10.924Z,63.40
2018-06-11T02:58:14.576Z,63.20
2018-06-11T03:02:18.251Z,63.10
2018-06-11T03:06:21.944Z,63.00
2018-06-11T03:10:25.652Z,63.40
2018-06-11T03:14:29.338Z,63.20
2018-06-11T03:18:32.972Z,62.90
2018-06-11T03:22:36.649Z,62.90
2018-06-11T03:26:40.341Z,63.10
2018-06-11T03:30:44.005Z,63.30
2018-06-11T03:34:47.687Z,63.10
2018-06-11T03:38:51.331Z,63.10
2018-06-11T03:42:55.012Z,63.10
2018-06-11T03:46:58.788Z,63.60
2018-06-11T03:51:02.456Z,63.70
2018-06-11T03:55:06.324Z,63.30
2018-06-11T03:59:09.967Z,62.90
2018-06-11T04:03:13.619Z,63.10
2018-06-11T04:07:17.350Z,63.70
2018-06-11T04:11:21.055Z,63.30
2018-06-11T04:15:24.687Z,63.80
2018-06-11T04:19:28.379Z,63.80
2018-06-11T04:23:32.046Z,63.20
2018-06-11T04:27:35.712Z,63.10
2018-06-11T04:31:39.370Z,62.20
2018-06-11T04:35:43.007Z,62.90
2018-06-11T04:39:46.666Z,62.90
2018-06-11T04:43:50.334Z,63.00
2018-06-11T04:47:53.995Z,62.90
2018-06-11T04:51:57.664Z,63.00
2018-06-11T04:56:01.324Z,63.50
2018-06-11T05:00:05.078Z,63.30
2018-06-11T05:04:09.427Z,63.60
2018-06-11T05:08:13.182Z,63.20
2018-06-11T05:12:16.866Z,63.30
2018-06-11T05:16:20.530Z,63.30
2018-06-11T05:20:24.175Z,63.70
2018-06-11T05:24:27.843Z,63.70
2018-06-11T05:28:31.529Z,63.90
2018-06-11T05:32:35.279Z,63.90
2018-06-11T05:36:38.931Z,64.00
2018-06-11T05:40:42.608Z,63.80
2018-06-11T05:44:46.371Z,63.40
2018-06-11T05:48:50.036Z,63.50
2018-06-11T05:52:53.707Z,63.60
2018-06-11T05:56:57.384Z,63.30
2018-06-11T06:01:01.012Z,64.40
2018-06-11T06:05:04.751Z,63.20
2018-06-11T06:09:08.465Z,63.10
2018-06-11T06:13:12.140Z,63.10
2018-06-11T06:17:15.851Z,63.00
2018-06-11T06:21:19.541Z,63.00
2018-06-11T06:25:23.213Z,63.00
2018-06-11T06:29:26.879Z,62.10
2018-06-11T06:33:30.555Z,62.80
2018-06-11T06:37:34.192Z,62.90
2018-06-11T06:41:38.084Z,63.00
2018-06-11T06:45:41.825Z,63.00
2018-06-11T06:49:45.512Z,63.00
2018-06-11T06:53:49.471Z,63.00
2018-06-11T06:57:53.100Z,63.00
2018-06-11T07:01:56.804Z,63.10
2018-06-11T07:06:00.479Z,63.10
2018-06-11T07:10:04.222Z,63.10
2018-06-11T07:14:07.955Z,63.30
2018-06-11T07:18:11.684Z,63.90
2018-06-11T07:22:15.354Z,62.80
2018-06-11T07:26:19.012Z,62.40
2018-06-11T07:30:22.686Z,64.00
2018-06-11T07:34:26.362Z,64.80
2018-06-11T07:38:30.013Z,63.10
2018-06-11T07:42:33.753Z,61.50
2018-06-11T07:46:37.443Z,61.50
2018-06-11T07:50:41.431Z,61.00
2018-06-11T07:54:45.284Z,61.00
2018-06-11T07:58:48.970Z,60.40
2018-06-11T08:02:52.704Z,61.40
2018-06-11T08:06:56.643Z,61.40
2018-06-11T08:11:00.347Z,61.40
2018-06-11T08:15:04.059Z,62.00
2018-06-11T08:19:07.703Z,63.30
2018-06-11T08:27:14.814Z,65.20
2018-06-11T08:31:18.526Z,62.50
2018-06-11T08:35:22.214Z,58.70
2018-06-11T08:39:25.946Z,57.70
2018-06-11T08:43:29.665Z,56.90
2018-06-11T08:51:36.726Z,55.90
2018-06-11T08:55:40.447Z,57.10
2018-06-11T08:59:44.193Z,57.30
2018-06-11T09:03:47.911Z,57.20
2018-06-11T09:07:51.680Z,57.50
2018-06-11T09:11:55.361Z,58.60
2018-06-11T09:15:59.093Z,58.90
2018-06-11T09:20:02.747Z,56.80
2018-06-11T09:24:06.431Z,55.30
2018-06-11T09:28:10.112Z,56.10
2018-06-11T09:32:13.799Z,55.00
2018-06-11T09:36:17.479Z,55.50
2018-06-11T09:40:21.117Z,55.50
2018-06-11T09:44:31.988Z,54.80
2018-06-11T09:48:35.676Z,54.70
2018-06-11T09:52:39.400Z,55.20
2018-06-11T09:56:43.072Z,56.30
2018-06-11T10:00:46.704Z,56.80
2018-06-11T10:04:50.376Z,55.80
2018-06-11T10:08:54.084Z,56.90
2018-06-11T10:12:57.750Z,56.50
2018-06-11T10:17:01.461Z,56.70
2018-06-11T10:21:05.087Z,55.70
2018-06-11T10:25:08.764Z,55.60
2018-06-11T10:29:12.417Z,56.30
2018-06-11T10:33:16.097Z,55.70
2018-06-11T10:37:19.772Z,55.00
2018-06-11T10:41:23.412Z,55.80
2018-06-11T10:45:27.084Z,56.50
2018-06-11T10:49:30.752Z,55.60
2018-06-11T10:53:34.437Z,55.40
2018-06-11T10:57:38.155Z,55.00
2018-06-11T11:01:41.808Z,55.30
2018-06-11T11:05:45.493Z,56.00
2018-06-11T11:09:49.180Z,55.50
2018-06-11T11:13:52.848Z,54.40
2018-06-11T11:17:56.536Z,55.50
2018-06-11T11:22:00.174Z,55.80
2018-06-11T11:30:07.924Z,55.60
2018-06-11T11:34:11.625Z,56.50
2018-06-11T11:38:15.326Z,56.90
2018-06-11T11:42:19.088Z,56.80
2018-06-11T11:46:22.787Z,54.80
2018-06-11T11:50:26.473Z,55.30
2018-06-11T11:54:30.151Z,55.50
2018-06-11T11:58:33.894Z,56.10
2018-06-11T12:02:37.582Z,54.30
2018-06-11T12:06:41.298Z,53.10
2018-06-11T12:10:45.009Z,53.40
2018-06-11T12:14:48.704Z,54.50
2018-06-11T12:18:52.380Z,54.40
2018-06-11T12:22:56.071Z,53.40
2018-06-11T12:26:59.799Z,54.70
2018-06-11T12:31:03.483Z,52.80
2018-06-11T12:35:07.195Z,54.00
2018-06-11T12:39:10.891Z,53.90
2018-06-11T12:43:14.572Z,53.60
2018-06-11T12:47:18.330Z,54.60
2018-06-11T12:51:22.071Z,54.50
2018-06-11T12:55:25.741Z,53.20
2018-06-11T12:59:29.420Z,53.10
2018-06-11T13:03:33.173Z,53.20
2018-06-11T13:07:36.882Z,53.40
2018-06-11T13:15:43.863Z,53.70
2018-06-11T13:19:47.544Z,53.30
2018-06-11T13:23:51.224Z,53.00
2018-06-11T13:27:54.901Z,53.20
2018-06-11T13:31:58.592Z,52.60
2018-06-11T13:36:02.247Z,53.50
2018-06-11T13:40:05.996Z,53.40
2018-06-11T13:44:09.675Z,54.10
2018-06-11T13:48:13.422Z,54.00
2018-06-11T13:52:17.088Z,52.90
2018-06-11T13:56:20.776Z,53.60
2018-06-11T14:00:24.554Z,51.80
2018-06-11T14:04:28.296Z,52.30
2018-06-11T14:08:32.291Z,52.00
2018-06-11T14:12:35.938Z,52.10
2018-06-11T14:16:39.645Z,51.90
2018-06-11T14:20:43.451Z,49.80
2018-06-11T14:24:47.156Z,49.60
2018-06-11T14:28:50.931Z,49.10
2018-06-11T14:32:54.604Z,49.80
2018-06-11T14:36:58.266Z,49.90
2018-06-11T14:41:01.988Z,49.40
2018-06-11T14:45:05.780Z,50.80
2018-06-11T14:49:09.452Z,50.40
2018-06-11T14:53:13.170Z,50.10
2018-06-11T14:57:16.850Z,49.60
2018-06-11T15:01:20.524Z,50.30
2018-06-11T15:05:24.212Z,51.10
2018-06-11T15:09:27.979Z,51.00
2018-06-11T15:13:31.678Z,48.80
2018-06-11T15:17:35.351Z,50.60
2018-06-11T15:21:39.035Z,50.60
2018-06-11T15:25:42.703Z,49.70
2018-06-11T15:29:46.345Z,48.70
2018-06-11T15:33:50.024Z,50.20
2018-06-11T15:37:53.740Z,50.80
2018-06-11T15:41:57.484Z,49.50
2018-06-11T15:46:01.151Z,49.40
2018-06-11T15:50:04.838Z,50.30
2018-06-11T15:54:08.531Z,50.70
2018-06-11T15:58:12.202Z,50.70
2018-06-11T16:02:15.872Z,49.40
2018-06-11T16:06:19.559Z,50.30
2018-06-11T16:10:23.236Z,50.00
2018-06-11T16:14:26.911Z,48.00
2018-06-11T16:18:30.586Z,49.30
2018-06-11T16:22:34.287Z,49.60
2018-06-11T16:26:37.967Z,48.90
2018-06-11T16:30:41.584Z,48.70
2018-06-11T16:34:45.241Z,48.80
2018-06-11T16:38:48.890Z,48.30
2018-06-11T16:42:52.603Z,48.30
2018-06-11T16:46:56.236Z,48.70
2018-06-11T16:50:59.903Z,48.50
2018-06-11T16:55:03.625Z,48.90
2018-06-11T16:59:07.305Z,49.20
2018-06-11T17:03:10.973Z,49.20
2018-06-11T17:07:14.698Z,49.10
2018-06-11T17:11:18.365Z,49.10
2018-06-11T17:15:22.195Z,48.50
2018-06-11T17:19:25.867Z,49.50
2018-06-11T17:23:29.525Z,49.30
2018-06-11T17:27:33.160Z,49.60
2018-06-11T17:31:36.824Z,48.80
2018-06-11T17:35:40.484Z,49.10
2018-06-11T17:39:44.176Z,49.40
2018-06-11T17:43:47.970Z,49.70
2018-06-11T17:47:51.590Z,49.40
2018-06-11T17:51:55.277Z,49.50
2018-06-11T18:00:02.263Z,49.40
2018-06-11T18:04:05.965Z,49.70
2018-06-11T18:08:09.642Z,49.30
2018-06-11T18:12:13.450Z,49.90
2018-06-11T18:16:17.112Z,49.90
2018-06-11T18:20:20.768Z,50.00
2018-06-11T18:24:24.494Z,50.10
2018-06-11T18:28:28.112Z,49.70
2018-06-11T18:32:31.755Z,50.00
2018-06-11T18:36:35.424Z,50.20
2018-06-11T18:40:39.088Z,50.30
2018-06-11T18:44:42.756Z,50.30
2018-06-11T18:48:56.172Z,50.50
2018-06-11T18:53:00.163Z,50.50
2018-06-11T18:57:03.882Z,50.70
2018-06-11T19:01:07.552Z,50.80
2018-06-11T19:05:11.215Z,50.90
2018-06-11T19:09:14.874Z,51.00
2018-06-11T19:13:18.541Z,51.20
2018-06-11T19:17:22.261Z,51.40
2018-06-11T19:21:25.911Z,51.60
2018-06-11T19:25:29.579Z,51.70
2018-06-11T19:29:33.218Z,51.80
2018-06-11T19:33:36.871Z,51.90
2018-06-11T19:37:41.135Z,51.90
2018-06-11T19:41:44.812Z,51.90
2018-06-11T19:45:48.499Z,52.00
2018-06-11T19:49:52.137Z,52.10
2018-06-11T19:53:57.649Z,52.20
2018-06-11T19:58:02.085Z,52.50
2018-06-11T20:02:07.394Z,52.60
2018-06-11T20:06:11.145Z,52.40
2018-06-11T20:10:14.847Z,53.10
2018-06-11T20:14:18.543Z,53.40
2018-06-11T20:18:22.200Z,53.30
2018-06-11T20:22:25.922Z,53.10
2018-06-11T20:26:29.582Z,53.50
2018-06-11T20:30:33.200Z,53.70
2018-06-11T20:34:36.863Z,54.20
2018-06-11T20:38:40.838Z,53.60
2018-06-11T20:42:44.500Z,53.60
2018-06-11T20:46:48.398Z,54.30
2018-06-11T20:50:52.056Z,54.10
2018-06-11T20:54:55.746Z,54.40
2018-06-11T20:58:59.443Z,54.90
2018-06-11T21:03:03.116Z,54.40
2018-06-11T21:07:06.852Z,54.90
2018-06-11T21:11:10.534Z,54.90
2018-06-11T21:15:14.227Z,55.30
2018-06-11T21:19:17.906Z,55.40
2018-06-11T21:23:21.567Z,55.80
2018-06-11T21:27:25.230Z,55.60
2018-06-11T21:31:28.864Z,56.20
2018-06-11T21:35:32.566Z,56.30
2018-06-11T21:39:36.244Z,55.80
2018-06-11T21:43:39.927Z,56.50
2018-06-11T21:47:43.594Z,56.30
2018-06-11T21:51:47.231Z,57.90
2018-06-11T21:55:50.907Z,56.60
2018-06-11T21:59:54.568Z,56.90
2018-06-11T22:03:58.309Z,57.50
2018-06-11T22:08:02.021Z,56.90
2018-06-11T22:12:05.664Z,57.30
2018-06-11T22:16:09.358Z,57.00
2018-06-11T22:20:13.039Z,57.10
2018-06-11T22:24:16.771Z,57.20
2018-06-11T22:28:20.460Z,56.90
2018-06-11T22:32:24.097Z,57.10
2018-06-11T22:40:31.200Z,57.00
2018-06-11T22:44:34.884Z,56.90
2018-06-11T22:48:38.545Z,58.50
2018-06-11T22:52:42.164Z,57.50
2018-06-11T22:56:45.856Z,56.80
2018-06-11T23:00:49.548Z,56.90
2018-06-11T23:04:53.219Z,57.40
2018-06-11T23:08:56.928Z,56.90
2018-06-11T23:13:00.576Z,56.90
2018-06-11T23:17:04.264Z,57.20
2018-06-11T23:21:07.954Z,56.90
2018-06-11T23:25:11.637Z,57.80
2018-06-11T23:29:15.366Z,57.70
2018-06-11T23:33:19.000Z,57.30
2018-06-11T23:37:22.750Z,57.70
2018-06-11T23:41:26.432Z,57.30
2018-06-11T23:45:30.100Z,57.90
2018-06-11T23:49:33.773Z,57.50
2018-06-11T23:53:37.414Z,57.40
2018-06-11T23:57:41.104Z,57.30
